Terminal Aerodrome Forecast
Issued by NWS

Home | Current Version | Previous Version | Text Only | Print | Product List | Glossary On
Versions: 1 2 3 4 5 6 7 8 9 10 11 12 13 14 15 16
059
FTUS46 KSEW 270520
TAFBFI
TAF
KBFI 270520Z 2706/2806 VRB03KT P6SM SCT040 BKN100
     FM270900 VRB04KT P6SM SCT015 BKN040 BKN100
      TEMPO 2712/2716 5SM -SHRA BKN018 OVC040
     FM271800 33006KT P6SM SCT020 BKN040
     FM272200 36010KT P6SM SCT040=

USA.gov is the U.S. government's official web portal to all federal, state and local government web resources and services.